sensor_id;sensor_type;location;lat;lon;timestamp;P1;durP1;ratioP1;P2;durP2;ratioP2
57752;SDS011;43583;53.132;6.574;2023-07-31T00:00:34;2.83;;;1.30;;
57752;SDS011;43583;53.132;6.574;2023-07-31T00:02:59;2.83;;;1.67;;
57752;SDS011;43583;53.132;6.574;2023-07-31T00:05:25;3.65;;;1.77;;
57752;SDS011;43583;53.132;6.574;2023-07-31T00:07:50;4.13;;;1.40;;
57752;SDS011;43583;53.132;6.574;2023-07-31T00:10:16;3.67;;;1.27;;
57752;SDS011;43583;53.132;6.574;2023-07-31T00:12:42;1.67;;;1.15;;
57752;SDS011;43583;53.132;6.574;2023-07-31T00:15:10;3.90;;;1.20;;
57752;SDS011;43583;53.132;6.574;2023-07-31T00:17:36;2.30;;;1.23;;
57752;SDS011;43583;53.132;6.574;2023-07-31T00:20:02;2.95;;;1.10;;
57752;SDS011;43583;53.132;6.574;2023-07-31T00:22:28;1.60;;;0.93;;
57752;SDS011;43583;53.132;6.574;2023-07-31T00:24:53;1.45;;;0.90;;
57752;SDS011;43583;53.132;6.574;2023-07-31T00:27:19;1.70;;;1.08;;
57752;SDS011;43583;53.132;6.574;2023-07-31T00:29:44;2.00;;;0.80;;
57752;SDS011;43583;53.132;6.574;2023-07-31T00:32:10;2.45;;;1.10;;
57752;SDS011;43583;53.132;6.574;2023-07-31T00:34:35;1.70;;;1.13;;
57752;SDS011;43583;53.132;6.574;2023-07-31T00:37:01;2.97;;;1.42;;
57752;SDS011;43583;53.132;6.574;2023-07-31T00:39:26;2.50;;;1.50;;
57752;SDS011;43583;53.132;6.574;2023-07-31T00:41:52;2.17;;;1.63;;
57752;SDS011;43583;53.132;6.574;2023-07-31T00:44:17;3.22;;;1.27;;
57752;SDS011;43583;53.132;6.574;2023-07-31T00:46:43;3.30;;;1.52;;
57752;SDS011;43583;53.132;6.574;2023-07-31T00:49:09;2.22;;;1.65;;
57752;SDS011;43583;53.132;6.574;2023-07-31T00:51:36;3.17;;;2.00;;
57752;SDS011;43583;53.132;6.574;2023-07-31T00:54:01;3.00;;;1.17;;
57752;SDS011;43583;53.132;6.574;2023-07-31T00:56:28;2.38;;;1.38;;
57752;SDS011;43583;53.132;6.574;2023-07-31T00:58:54;3.30;;;1.52;;
57752;SDS011;43583;53.132;6.574;2023-07-31T01:01:20;3.50;;;1.38;;
57752;SDS011;43583;53.132;6.574;2023-07-31T01:03:46;2.58;;;1.42;;
57752;SDS011;43583;53.132;6.574;2023-07-31T01:09:29;1.60;;;1.10;;
57752;SDS011;43583;53.132;6.574;2023-07-31T01:12:14;1.27;;;0.70;;
57752;SDS011;43583;53.132;6.574;2023-07-31T01:15:06;3.90;;;1.30;;
57752;SDS011;43583;53.132;6.574;2023-07-31T01:17:35;2.30;;;1.20;;
57752;SDS011;43583;53.132;6.574;2023-07-31T01:20:02;1.95;;;1.20;;
57752;SDS011;43583;53.132;6.574;2023-07-31T01:28:08;1.75;;;0.80;;
57752;SDS011;43583;53.132;6.574;2023-07-31T01:30:39;1.75;;;0.77;;
57752;SDS011;43583;53.132;6.574;2023-07-31T01:33:08;2.13;;;0.90;;
57752;SDS011;43583;53.132;6.574;2023-07-31T01:35:35;1.70;;;0.88;;
57752;SDS011;43583;53.132;6.574;2023-07-31T01:38:02;1.58;;;0.60;;
57752;SDS011;43583;53.132;6.574;2023-07-31T01:40:29;2.60;;;0.50;;
57752;SDS011;43583;53.132;6.574;2023-07-31T01:42:55;1.27;;;0.60;;
57752;SDS011;43583;53.132;6.574;2023-07-31T01:45:20;1.95;;;0.60;;
57752;SDS011;43583;53.132;6.574;2023-07-31T01:47:46;2.35;;;0.50;;
57752;SDS011;43583;53.132;6.574;2023-07-31T01:50:11;0.80;;;0.40;;
57752;SDS011;43583;53.132;6.574;2023-07-31T01:52:37;0.70;;;0.40;;
57752;SDS011;43583;53.132;6.574;2023-07-31T01:55:03;0.63;;;0.28;;
57752;SDS011;43583;53.132;6.574;2023-07-31T01:57:29;0.73;;;0.22;;
57752;SDS011;43583;53.132;6.574;2023-07-31T01:59:54;0.80;;;0.63;;
57752;SDS011;43583;53.132;6.574;2023-07-31T02:02:20;1.77;;;0.28;;
57752;SDS011;43583;53.132;6.574;2023-07-31T02:04:48;0.68;;;0.20;;
57752;SDS011;43583;53.132;6.574;2023-07-31T02:07:13;0.60;;;0.20;;
57752;SDS011;43583;53.132;6.574;2023-07-31T02:09:39;0.70;;;0.20;;
57752;SDS011;43583;53.132;6.574;2023-07-31T02:12:04;0.70;;;0.20;;
57752;SDS011;43583;53.132;6.574;2023-07-31T02:14:30;1.00;;;0.20;;
57752;SDS011;43583;53.132;6.574;2023-07-31T02:16:56;0.40;;;0.10;;
57752;SDS011;43583;53.132;6.574;2023-07-31T02:19:21;0.63;;;0.20;;
57752;SDS011;43583;53.132;6.574;2023-07-31T02:21:47;0.55;;;0.20;;
57752;SDS011;43583;53.132;6.574;2023-07-31T02:24:12;0.52;;;0.10;;
57752;SDS011;43583;53.132;6.574;2023-07-31T02:26:38;0.50;;;0.20;;
57752;SDS011;43583;53.132;6.574;2023-07-31T02:29:03;0.30;;;0.10;;
57752;SDS011;43583;53.132;6.574;2023-07-31T02:31:29;1.35;;;0.10;;
57752;SDS011;43583;53.132;6.574;2023-07-31T02:33:55;0.52;;;0.10;;
57752;SDS011;43583;53.132;6.574;2023-07-31T02:36:20;0.35;;;0.00;;
57752;SDS011;43583;53.132;6.574;2023-07-31T02:38:46;3.22;;;0.10;;
57752;SDS011;43583;53.132;6.574;2023-07-31T02:41:11;0.30;;;0.10;;
57752;SDS011;43583;53.132;6.574;2023-07-31T02:43:37;0.10;;;0.00;;
57752;SDS011;43583;53.132;6.574;2023-07-31T02:46:02;0.15;;;0.10;;
57752;SDS011;43583;53.132;6.574;2023-07-31T02:48:28;0.55;;;0.10;;
57752;SDS011;43583;53.132;6.574;2023-07-31T02:50:53;0.20;;;0.10;;
57752;SDS011;43583;53.132;6.574;2023-07-31T02:53:19;0.57;;;0.10;;
57752;SDS011;43583;53.132;6.574;2023-07-31T02:55:45;0.43;;;0.10;;
57752;SDS011;43583;53.132;6.574;2023-07-31T02:58:10;0.20;;;0.00;;
57752;SDS011;43583;53.132;6.574;2023-07-31T03:00:36;0.32;;;0.10;;
57752;SDS011;43583;53.132;6.574;2023-07-31T03:03:06;0.45;;;0.28;;
57752;SDS011;43583;53.132;6.574;2023-07-31T03:05:32;1.42;;;0.10;;
57752;SDS011;43583;53.132;6.574;2023-07-31T03:07:57;0.43;;;0.10;;
57752;SDS011;43583;53.132;6.574;2023-07-31T03:10:23;0.20;;;0.10;;
57752;SDS011;43583;53.132;6.574;2023-07-31T03:12:48;0.70;;;0.10;;
57752;SDS011;43583;53.132;6.574;2023-07-31T03:15:14;0.93;;;0.10;;
57752;SDS011;43583;53.132;6.574;2023-07-31T03:17:39;0.22;;;0.10;;
57752;SDS011;43583;53.132;6.574;2023-07-31T03:20:05;0.50;;;0.10;;
57752;SDS011;43583;53.132;6.574;2023-07-31T03:22:31;1.70;;;0.10;;
57752;SDS011;43583;53.132;6.574;2023-07-31T03:24:57;1.20;;;0.10;;
57752;SDS011;43583;53.132;6.574;2023-07-31T03:27:22;0.30;;;0.03;;
57752;SDS011;43583;53.132;6.574;2023-07-31T03:29:47;0.30;;;0.22;;
57752;SDS011;43583;53.132;6.574;2023-07-31T03:32:16;0.20;;;0.10;;
57752;SDS011;43583;53.132;6.574;2023-07-31T03:34:41;1.13;;;0.08;;
57752;SDS011;43583;53.132;6.574;2023-07-31T03:37:07;0.17;;;0.00;;
57752;SDS011;43583;53.132;6.574;2023-07-31T03:39:34;0.75;;;0.10;;
57752;SDS011;43583;53.132;6.574;2023-07-31T03:42:00;0.68;;;0.10;;
57752;SDS011;43583;53.132;6.574;2023-07-31T03:44:26;0.70;;;0.10;;
57752;SDS011;43583;53.132;6.574;2023-07-31T03:46:51;0.25;;;0.00;;
57752;SDS011;43583;53.132;6.574;2023-07-31T03:49:17;0.30;;;0.00;;
57752;SDS011;43583;53.132;6.574;2023-07-31T03:51:42;1.10;;;0.00;;
57752;SDS011;43583;53.132;6.574;2023-07-31T03:54:08;1.02;;;0.00;;
57752;SDS011;43583;53.132;6.574;2023-07-31T03:56:34;1.38;;;0.03;;
57752;SDS011;43583;53.132;6.574;2023-07-31T03:58:59;0.25;;;0.00;;
57752;SDS011;43583;53.132;6.574;2023-07-31T04:01:25;0.30;;;0.00;;
57752;SDS011;43583;53.132;6.574;2023-07-31T04:03:51;0.77;;;0.00;;
57752;SDS011;43583;53.132;6.574;2023-07-31T04:06:16;0.93;;;0.10;;
57752;SDS011;43583;53.132;6.574;2023-07-31T04:08:43;0.95;;;0.10;;
57752;SDS011;43583;53.132;6.574;2023-07-31T04:11:10;0.30;;;0.10;;
57752;SDS011;43583;53.132;6.574;2023-07-31T04:13:36;0.20;;;0.03;;
57752;SDS011;43583;53.132;6.574;2023-07-31T04:16:02;0.25;;;0.00;;
57752;SDS011;43583;53.132;6.574;2023-07-31T04:18:28;0.47;;;0.00;;
57752;SDS011;43583;53.132;6.574;2023-07-31T04:20:55;0.30;;;0.00;;
57752;SDS011;43583;53.132;6.574;2023-07-31T04:23:21;0.15;;;0.00;;
57752;SDS011;43583;53.132;6.574;2023-07-31T04:25:47;0.10;;;0.00;;
57752;SDS011;43583;53.132;6.574;2023-07-31T04:28:12;0.40;;;0.10;;
57752;SDS011;43583;53.132;6.574;2023-07-31T04:30:38;0.10;;;0.00;;
57752;SDS011;43583;53.132;6.574;2023-07-31T04:33:04;0.60;;;0.00;;
57752;SDS011;43583;53.132;6.574;2023-07-31T04:35:29;0.45;;;0.10;;
57752;SDS011;43583;53.132;6.574;2023-07-31T04:37:55;1.95;;;0.10;;
57752;SDS011;43583;53.132;6.574;2023-07-31T04:40:21;0.17;;;0.08;;
57752;SDS011;43583;53.132;6.574;2023-07-31T04:42:46;0.35;;;0.20;;
57752;SDS011;43583;53.132;6.574;2023-07-31T04:45:12;0.10;;;0.00;;
57752;SDS011;43583;53.132;6.574;2023-07-31T04:47:38;0.05;;;0.00;;
57752;SDS011;43583;53.132;6.574;2023-07-31T04:50:03;0.35;;;0.10;;
57752;SDS011;43583;53.132;6.574;2023-07-31T04:52:29;0.22;;;0.00;;
57752;SDS011;43583;53.132;6.574;2023-07-31T04:54:55;0.40;;;0.10;;
57752;SDS011;43583;53.132;6.574;2023-07-31T04:57:20;0.22;;;0.10;;
57752;SDS011;43583;53.132;6.574;2023-07-31T04:59:46;1.00;;;0.00;;
57752;SDS011;43583;53.132;6.574;2023-07-31T05:02:11;0.52;;;0.00;;
57752;SDS011;43583;53.132;6.574;2023-07-31T05:04:38;0.32;;;0.00;;
57752;SDS011;43583;53.132;6.574;2023-07-31T05:07:03;0.43;;;0.10;;
57752;SDS011;43583;53.132;6.574;2023-07-31T05:09:29;0.40;;;0.03;;
57752;SDS011;43583;53.132;6.574;2023-07-31T05:11:55;0.68;;;0.05;;
57752;SDS011;43583;53.132;6.574;2023-07-31T05:14:20;0.60;;;0.10;;
57752;SDS011;43583;53.132;6.574;2023-07-31T05:16:46;0.57;;;0.10;;
57752;SDS011;43583;53.132;6.574;2023-07-31T05:19:11;0.95;;;0.10;;
57752;SDS011;43583;53.132;6.574;2023-07-31T05:21:37;1.25;;;0.20;;
57752;SDS011;43583;53.132;6.574;2023-07-31T05:24:03;0.20;;;0.10;;
57752;SDS011;43583;53.132;6.574;2023-07-31T05:26:28;0.20;;;0.10;;
57752;SDS011;43583;53.132;6.574;2023-07-31T05:28:54;0.38;;;0.10;;
57752;SDS011;43583;53.132;6.574;2023-07-31T05:31:20;1.67;;;0.20;;
57752;SDS011;43583;53.132;6.574;2023-07-31T05:33:47;0.63;;;0.10;;
57752;SDS011;43583;53.132;6.574;2023-07-31T05:36:14;0.75;;;0.10;;
57752;SDS011;43583;53.132;6.574;2023-07-31T05:38:40;0.40;;;0.10;;
57752;SDS011;43583;53.132;6.574;2023-07-31T05:41:07;0.30;;;0.10;;
57752;SDS011;43583;53.132;6.574;2023-07-31T05:43:32;0.40;;;0.10;;
57752;SDS011;43583;53.132;6.574;2023-07-31T05:45:58;0.20;;;0.00;;
57752;SDS011;43583;53.132;6.574;2023-07-31T05:48:23;0.85;;;0.15;;
57752;SDS011;43583;53.132;6.574;2023-07-31T05:50:49;0.82;;;0.10;;
57752;SDS011;43583;53.132;6.574;2023-07-31T05:53:15;0.93;;;0.10;;
57752;SDS011;43583;53.132;6.574;2023-07-31T05:55:40;2.05;;;0.52;;
57752;SDS011;43583;53.132;6.574;2023-07-31T05:58:06;0.57;;;0.20;;
57752;SDS011;43583;53.132;6.574;2023-07-31T06:00:32;0.73;;;0.20;;
57752;SDS011;43583;53.132;6.574;2023-07-31T06:02:57;1.05;;;0.20;;
57752;SDS011;43583;53.132;6.574;2023-07-31T06:05:23;0.60;;;0.20;;
57752;SDS011;43583;53.132;6.574;2023-07-31T06:07:48;2.22;;;0.20;;
57752;SDS011;43583;53.132;6.574;2023-07-31T06:10:14;0.68;;;0.20;;
57752;SDS011;43583;53.132;6.574;2023-07-31T06:12:40;2.38;;;0.25;;
57752;SDS011;43583;53.132;6.574;2023-07-31T06:15:05;1.17;;;0.40;;
57752;SDS011;43583;53.132;6.574;2023-07-31T06:17:31;4.68;;;0.40;;
57752;SDS011;43583;53.132;6.574;2023-07-31T06:19:57;2.97;;;0.55;;
57752;SDS011;43583;53.132;6.574;2023-07-31T06:22:22;3.17;;;0.90;;
57752;SDS011;43583;53.132;6.574;2023-07-31T06:24:48;7.25;;;1.00;;
57752;SDS011;43583;53.132;6.574;2023-07-31T06:27:14;6.63;;;1.02;;
57752;SDS011;43583;53.132;6.574;2023-07-31T06:29:39;8.52;;;2.05;;
57752;SDS011;43583;53.132;6.574;2023-07-31T06:32:06;5.25;;;1.60;;
57752;SDS011;43583;53.132;6.574;2023-07-31T06:34:31;11.10;;;1.77;;
57752;SDS011;43583;53.132;6.574;2023-07-31T06:36:57;11.82;;;2.63;;
57752;SDS011;43583;53.132;6.574;2023-07-31T06:39:22;13.70;;;3.33;;
57752;SDS011;43583;53.132;6.574;2023-07-31T06:41:48;9.48;;;2.30;;
57752;SDS011;43583;53.132;6.574;2023-07-31T06:44:14;9.90;;;2.38;;
57752;SDS011;43583;53.132;6.574;2023-07-31T06:46:39;12.23;;;2.25;;
57752;SDS011;43583;53.132;6.574;2023-07-31T06:49:05;15.48;;;2.60;;
57752;SDS011;43583;53.132;6.574;2023-07-31T06:51:30;13.88;;;3.65;;
57752;SDS011;43583;53.132;6.574;2023-07-31T06:53:56;9.07;;;2.72;;
57752;SDS011;43583;53.132;6.574;2023-07-31T06:56:22;12.88;;;3.22;;
57752;SDS011;43583;53.132;6.574;2023-07-31T06:58:48;12.48;;;3.00;;
57752;SDS011;43583;53.132;6.574;2023-07-31T07:01:14;12.85;;;3.88;;
57752;SDS011;43583;53.132;6.574;2023-07-31T07:03:39;10.80;;;2.75;;
57752;SDS011;43583;53.132;6.574;2023-07-31T07:06:05;9.45;;;2.40;;
57752;SDS011;43583;53.132;6.574;2023-07-31T07:08:30;8.85;;;2.70;;
57752;SDS011;43583;53.132;6.574;2023-07-31T07:10:56;9.57;;;2.17;;
57752;SDS011;43583;53.132;6.574;2023-07-31T07:13:21;7.50;;;2.10;;
57752;SDS011;43583;53.132;6.574;2023-07-31T07:15:48;9.30;;;2.53;;
57752;SDS011;43583;53.132;6.574;2023-07-31T07:18:14;9.07;;;2.15;;
57752;SDS011;43583;53.132;6.574;2023-07-31T07:20:40;9.23;;;2.17;;
57752;SDS011;43583;53.132;6.574;2023-07-31T07:23:06;4.50;;;1.42;;
57752;SDS011;43583;53.132;6.574;2023-07-31T07:25:31;6.68;;;1.98;;
57752;SDS011;43583;53.132;6.574;2023-07-31T07:27:57;11.48;;;2.42;;
57752;SDS011;43583;53.132;6.574;2023-07-31T07:30:22;4.43;;;1.33;;
57752;SDS011;43583;53.132;6.574;2023-07-31T07:32:50;7.15;;;1.52;;
57752;SDS011;43583;53.132;6.574;2023-07-31T07:35:15;6.53;;;1.10;;
57752;SDS011;43583;53.132;6.574;2023-07-31T07:37:41;3.92;;;1.10;;
57752;SDS011;43583;53.132;6.574;2023-07-31T07:40:07;3.47;;;0.68;;
57752;SDS011;43583;53.132;6.574;2023-07-31T07:42:33;4.57;;;0.65;;
57752;SDS011;43583;53.132;6.574;2023-07-31T07:44:58;4.25;;;0.90;;
57752;SDS011;43583;53.132;6.574;2023-07-31T07:47:24;2.92;;;0.57;;
57752;SDS011;43583;53.132;6.574;2023-07-31T07:49:49;3.75;;;0.63;;
57752;SDS011;43583;53.132;6.574;2023-07-31T07:52:15;1.85;;;0.38;;
57752;SDS011;43583;53.132;6.574;2023-07-31T07:54:40;3.65;;;0.68;;
57752;SDS011;43583;53.132;6.574;2023-07-31T07:57:06;1.65;;;0.30;;
57752;SDS011;43583;53.132;6.574;2023-07-31T07:59:31;1.75;;;0.30;;
57752;SDS011;43583;53.132;6.574;2023-07-31T08:01:57;0.73;;;0.30;;
57752;SDS011;43583;53.132;6.574;2023-07-31T08:04:22;1.95;;;0.30;;
57752;SDS011;43583;53.132;6.574;2023-07-31T08:06:48;1.38;;;0.20;;
57752;SDS011;43583;53.132;6.574;2023-07-31T08:09:14;1.20;;;0.45;;
57752;SDS011;43583;53.132;6.574;2023-07-31T08:11:39;0.80;;;0.20;;
57752;SDS011;43583;53.132;6.574;2023-07-31T08:14:05;1.63;;;0.20;;
57752;SDS011;43583;53.132;6.574;2023-07-31T08:16:30;1.92;;;0.47;;
57752;SDS011;43583;53.132;6.574;2023-07-31T08:18:56;0.68;;;0.10;;
57752;SDS011;43583;53.132;6.574;2023-07-31T08:21:22;0.55;;;0.10;;
57752;SDS011;43583;53.132;6.574;2023-07-31T08:23:48;1.38;;;0.20;;
57752;SDS011;43583;53.132;6.574;2023-07-31T08:26:17;1.67;;;0.20;;
57752;SDS011;43583;53.132;6.574;2023-07-31T08:28:44;1.00;;;0.13;;
57752;SDS011;43583;53.132;6.574;2023-07-31T08:31:09;0.60;;;0.10;;
57752;SDS011;43583;53.132;6.574;2023-07-31T08:33:35;0.55;;;0.10;;
57752;SDS011;43583;53.132;6.574;2023-07-31T08:36:01;0.70;;;0.10;;
57752;SDS011;43583;53.132;6.574;2023-07-31T08:38:27;0.52;;;0.10;;
57752;SDS011;43583;53.132;6.574;2023-07-31T08:40:54;0.50;;;0.10;;
57752;SDS011;43583;53.132;6.574;2023-07-31T08:43:21;0.85;;;0.10;;
57752;SDS011;43583;53.132;6.574;2023-07-31T08:45:52;0.45;;;0.20;;
57752;SDS011;43583;53.132;6.574;2023-07-31T08:48:19;0.95;;;0.20;;
57752;SDS011;43583;53.132;6.574;2023-07-31T08:50:46;0.60;;;0.20;;
57752;SDS011;43583;53.132;6.574;2023-07-31T08:53:11;0.70;;;0.15;;
57752;SDS011;43583;53.132;6.574;2023-07-31T08:55:37;0.82;;;0.10;;
57752;SDS011;43583;53.132;6.574;2023-07-31T08:58:03;0.30;;;0.10;;
57752;SDS011;43583;53.132;6.574;2023-07-31T09:00:30;0.82;;;0.10;;
57752;SDS011;43583;53.132;6.574;2023-07-31T09:05:28;0.20;;;0.10;;
57752;SDS011;43583;53.132;6.574;2023-07-31T09:07:55;0.63;;;0.10;;
57752;SDS011;43583;53.132;6.574;2023-07-31T09:10:22;1.13;;;0.10;;
57752;SDS011;43583;53.132;6.574;2023-07-31T09:12:51;0.30;;;0.03;;
57752;SDS011;43583;53.132;6.574;2023-07-31T09:15:17;0.43;;;0.08;;
57752;SDS011;43583;53.132;6.574;2023-07-31T09:17:44;1.15;;;0.10;;
57752;SDS011;43583;53.132;6.574;2023-07-31T09:20:12;0.20;;;0.00;;
57752;SDS011;43583;53.132;6.574;2023-07-31T09:22:43;0.50;;;0.10;;
57752;SDS011;43583;53.132;6.574;2023-07-31T09:25:19;0.28;;;0.00;;
57752;SDS011;43583;53.132;6.574;2023-07-31T09:28:00;0.35;;;0.00;;
57752;SDS011;43583;53.132;6.574;2023-07-31T09:30:26;0.25;;;0.00;;
57752;SDS011;43583;53.132;6.574;2023-07-31T09:33:00;0.40;;;0.00;;
57752;SDS011;43583;53.132;6.574;2023-07-31T09:35:28;0.17;;;0.00;;
57752;SDS011;43583;53.132;6.574;2023-07-31T09:37:58;0.30;;;0.00;;
57752;SDS011;43583;53.132;6.574;2023-07-31T09:40:38;0.47;;;0.08;;
57752;SDS011;43583;53.132;6.574;2023-07-31T09:43:08;0.10;;;0.00;;
57752;SDS011;43583;53.132;6.574;2023-07-31T09:45:36;0.43;;;0.00;;
57752;SDS011;43583;53.132;6.574;2023-07-31T09:48:03;0.43;;;0.00;;
57752;SDS011;43583;53.132;6.574;2023-07-31T09:50:34;0.10;;;0.00;;
57752;SDS011;43583;53.132;6.574;2023-07-31T09:53:03;0.00;;;0.00;;
57752;SDS011;43583;53.132;6.574;2023-07-31T09:55:29;0.38;;;0.00;;
57752;SDS011;43583;53.132;6.574;2023-07-31T09:57:56;0.10;;;0.00;;
57752;SDS011;43583;53.132;6.574;2023-07-31T10:00:22;0.00;;;0.00;;
57752;SDS011;43583;53.132;6.574;2023-07-31T10:02:50;0.00;;;0.00;;
57752;SDS011;43583;53.132;6.574;2023-07-31T10:05:16;0.85;;;0.00;;
57752;SDS011;43583;53.132;6.574;2023-07-31T10:07:43;0.10;;;0.00;;
57752;SDS011;43583;53.132;6.574;2023-07-31T10:10:16;0.00;;;0.00;;
57752;SDS011;43583;53.132;6.574;2023-07-31T10:12:43;0.05;;;0.05;;
57752;SDS011;43583;53.132;6.574;2023-07-31T10:15:10;0.00;;;0.00;;
57752;SDS011;43583;53.132;6.574;2023-07-31T10:17:36;0.00;;;0.00;;
57752;SDS011;43583;53.132;6.574;2023-07-31T10:20:02;0.00;;;0.00;;
57752;SDS011;43583;53.132;6.574;2023-07-31T10:22:30;0.00;;;0.00;;
57752;SDS011;43583;53.132;6.574;2023-07-31T10:24:57;0.00;;;0.00;;
57752;SDS011;43583;53.132;6.574;2023-07-31T10:27:24;0.00;;;0.00;;
57752;SDS011;43583;53.132;6.574;2023-07-31T10:29:50;4.00;;;0.22;;
57752;SDS011;43583;53.132;6.574;2023-07-31T10:32:19;0.00;;;0.00;;
57752;SDS011;43583;53.132;6.574;2023-07-31T10:34:45;0.10;;;0.00;;
57752;SDS011;43583;53.132;6.574;2023-07-31T10:40:02;0.10;;;0.00;;
57752;SDS011;43583;53.132;6.574;2023-07-31T10:42:35;0.00;;;0.00;;
57752;SDS011;43583;53.132;6.574;2023-07-31T10:45:07;0.00;;;0.00;;
57752;SDS011;43583;53.132;6.574;2023-07-31T10:47:37;0.00;;;0.00;;
57752;SDS011;43583;53.132;6.574;2023-07-31T10:50:17;0.00;;;0.00;;
57752;SDS011;43583;53.132;6.574;2023-07-31T10:52:46;0.00;;;0.00;;
57752;SDS011;43583;53.132;6.574;2023-07-31T10:55:14;0.00;;;0.00;;
57752;SDS011;43583;53.132;6.574;2023-07-31T10:57:40;0.10;;;0.00;;
57752;SDS011;43583;53.132;6.574;2023-07-31T11:00:23;0.00;;;0.00;;
57752;SDS011;43583;53.132;6.574;2023-07-31T11:03:01;0.10;;;0.00;;
57752;SDS011;43583;53.132;6.574;2023-07-31T11:08:13;0.07;;;0.00;;
57752;SDS011;43583;53.132;6.574;2023-07-31T11:10:43;0.52;;;0.00;;
57752;SDS011;43583;53.132;6.574;2023-07-31T11:13:09;0.00;;;0.00;;
57752;SDS011;43583;53.132;6.574;2023-07-31T11:15:35;0.10;;;0.00;;
57752;SDS011;43583;53.132;6.574;2023-07-31T11:18:01;0.00;;;0.00;;
57752;SDS011;43583;53.132;6.574;2023-07-31T11:20:32;0.03;;;0.00;;
57752;SDS011;43583;53.132;6.574;2023-07-31T11:22:59;0.00;;;0.00;;
57752;SDS011;43583;53.132;6.574;2023-07-31T11:25:31;0.15;;;0.00;;
57752;SDS011;43583;53.132;6.574;2023-07-31T11:28:01;0.00;;;0.00;;
57752;SDS011;43583;53.132;6.574;2023-07-31T11:30:31;0.63;;;0.00;;
57752;SDS011;43583;53.132;6.574;2023-07-31T11:32:57;0.10;;;0.00;;
57752;SDS011;43583;53.132;6.574;2023-07-31T11:35:22;0.00;;;0.00;;
57752;SDS011;43583;53.132;6.574;2023-07-31T11:37:48;0.10;;;0.00;;
57752;SDS011;43583;53.132;6.574;2023-07-31T11:40:14;0.15;;;0.00;;
57752;SDS011;43583;53.132;6.574;2023-07-31T11:42:40;0.00;;;0.00;;
57752;SDS011;43583;53.132;6.574;2023-07-31T11:45:06;0.47;;;0.00;;
57752;SDS011;43583;53.132;6.574;2023-07-31T11:47:34;0.63;;;0.00;;
57752;SDS011;43583;53.132;6.574;2023-07-31T11:50:01;0.00;;;0.00;;
57752;SDS011;43583;53.132;6.574;2023-07-31T11:52:32;0.10;;;0.00;;
57752;SDS011;43583;53.132;6.574;2023-07-31T11:55:06;0.15;;;0.00;;
57752;SDS011;43583;53.132;6.574;2023-07-31T11:57:34;0.80;;;0.20;;
57752;SDS011;43583;53.132;6.574;2023-07-31T12:00:01;0.00;;;0.00;;
57752;SDS011;43583;53.132;6.574;2023-07-31T12:02:28;0.30;;;0.00;;
57752;SDS011;43583;53.132;6.574;2023-07-31T12:04:53;0.63;;;0.00;;
57752;SDS011;43583;53.132;6.574;2023-07-31T12:07:19;0.88;;;0.03;;
57752;SDS011;43583;53.132;6.574;2023-07-31T12:09:54;0.30;;;0.00;;
57752;SDS011;43583;53.132;6.574;2023-07-31T12:12:20;0.10;;;0.00;;
57752;SDS011;43583;53.132;6.574;2023-07-31T12:14:48;1.05;;;0.00;;
57752;SDS011;43583;53.132;6.574;2023-07-31T12:17:17;1.63;;;0.00;;
57752;SDS011;43583;53.132;6.574;2023-07-31T12:19:45;0.32;;;0.00;;
57752;SDS011;43583;53.132;6.574;2023-07-31T12:22:14;0.10;;;0.00;;
57752;SDS011;43583;53.132;6.574;2023-07-31T12:24:41;1.45;;;0.00;;
57752;SDS011;43583;53.132;6.574;2023-07-31T12:27:13;0.73;;;0.00;;
57752;SDS011;43583;53.132;6.574;2023-07-31T12:29:41;0.38;;;0.00;;
57752;SDS011;43583;53.132;6.574;2023-07-31T12:32:24;0.63;;;0.00;;
57752;SDS011;43583;53.132;6.574;2023-07-31T12:34:50;0.35;;;0.00;;
57752;SDS011;43583;53.132;6.574;2023-07-31T12:37:16;1.75;;;0.00;;
57752;SDS011;43583;53.132;6.574;2023-07-31T12:39:42;0.30;;;0.00;;
57752;SDS011;43583;53.132;6.574;2023-07-31T12:42:08;0.17;;;0.00;;
57752;SDS011;43583;53.132;6.574;2023-07-31T12:44:33;0.93;;;0.03;;
57752;SDS011;43583;53.132;6.574;2023-07-31T12:46:59;0.70;;;0.10;;
57752;SDS011;43583;53.132;6.574;2023-07-31T12:49:24;0.90;;;0.10;;
57752;SDS011;43583;53.132;6.574;2023-07-31T12:51:50;1.65;;;0.10;;
57752;SDS011;43583;53.132;6.574;2023-07-31T12:54:15;2.65;;;0.20;;
57752;SDS011;43583;53.132;6.574;2023-07-31T12:56:41;0.57;;;0.10;;
57752;SDS011;43583;53.132;6.574;2023-07-31T12:59:07;2.28;;;0.20;;
57752;SDS011;43583;53.132;6.574;2023-07-31T13:01:32;1.00;;;0.20;;
57752;SDS011;43583;53.132;6.574;2023-07-31T13:03:58;1.50;;;0.10;;
57752;SDS011;43583;53.132;6.574;2023-07-31T13:06:24;1.27;;;0.10;;
57752;SDS011;43583;53.132;6.574;2023-07-31T13:08:50;1.80;;;0.20;;
57752;SDS011;43583;53.132;6.574;2023-07-31T13:11:16;2.95;;;0.20;;
57752;SDS011;43583;53.132;6.574;2023-07-31T13:13:42;1.92;;;0.10;;
57752;SDS011;43583;53.132;6.574;2023-07-31T13:16:07;2.55;;;0.15;;
57752;SDS011;43583;53.132;6.574;2023-07-31T13:18:33;2.72;;;0.35;;
57752;SDS011;43583;53.132;6.574;2023-07-31T13:20:58;2.10;;;0.40;;
57752;SDS011;43583;53.132;6.574;2023-07-31T13:23:24;2.05;;;0.30;;
57752;SDS011;43583;53.132;6.574;2023-07-31T13:25:50;1.83;;;0.60;;
57752;SDS011;43583;53.132;6.574;2023-07-31T13:28:15;4.03;;;0.40;;
57752;SDS011;43583;53.132;6.574;2023-07-31T13:30:41;1.00;;;0.30;;
57752;SDS011;43583;53.132;6.574;2023-07-31T13:33:06;2.15;;;0.30;;
57752;SDS011;43583;53.132;6.574;2023-07-31T13:35:32;3.13;;;0.32;;
57752;SDS011;43583;53.132;6.574;2023-07-31T13:37:57;4.20;;;0.47;;
57752;SDS011;43583;53.132;6.574;2023-07-31T13:40:23;1.67;;;0.30;;
57752;SDS011;43583;53.132;6.574;2023-07-31T13:42:48;2.05;;;0.30;;
57752;SDS011;43583;53.132;6.574;2023-07-31T13:45:14;2.17;;;0.63;;
57752;SDS011;43583;53.132;6.574;2023-07-31T13:47:40;2.10;;;0.30;;
57752;SDS011;43583;53.132;6.574;2023-07-31T13:50:05;2.03;;;0.20;;
57752;SDS011;43583;53.132;6.574;2023-07-31T13:52:31;1.25;;;0.30;;
57752;SDS011;43583;53.132;6.574;2023-07-31T13:54:57;2.55;;;0.40;;
57752;SDS011;43583;53.132;6.574;2023-07-31T13:57:22;3.95;;;0.30;;
57752;SDS011;43583;53.132;6.574;2023-07-31T13:59:48;2.13;;;0.43;;
57752;SDS011;43583;53.132;6.574;2023-07-31T14:02:14;3.95;;;0.30;;
57752;SDS011;43583;53.132;6.574;2023-07-31T14:04:40;4.93;;;0.50;;
57752;SDS011;43583;53.132;6.574;2023-07-31T14:07:05;2.35;;;0.30;;
57752;SDS011;43583;53.132;6.574;2023-07-31T14:09:31;2.53;;;0.60;;
57752;SDS011;43583;53.132;6.574;2023-07-31T14:11:57;3.30;;;0.70;;
57752;SDS011;43583;53.132;6.574;2023-07-31T14:14:23;1.83;;;0.35;;
57752;SDS011;43583;53.132;6.574;2023-07-31T14:16:48;2.97;;;0.50;;
57752;SDS011;43583;53.132;6.574;2023-07-31T14:19:14;1.80;;;0.40;;
57752;SDS011;43583;53.132;6.574;2023-07-31T14:21:39;2.10;;;0.57;;
57752;SDS011;43583;53.132;6.574;2023-07-31T14:24:05;3.20;;;0.30;;
57752;SDS011;43583;53.132;6.574;2023-07-31T14:26:31;1.67;;;0.40;;
57752;SDS011;43583;53.132;6.574;2023-07-31T14:28:56;1.30;;;0.30;;
57752;SDS011;43583;53.132;6.574;2023-07-31T14:31:22;2.38;;;0.50;;
57752;SDS011;43583;53.132;6.574;2023-07-31T14:33:48;3.00;;;0.98;;
57752;SDS011;43583;53.132;6.574;2023-07-31T14:36:13;3.30;;;1.02;;
57752;SDS011;43583;53.132;6.574;2023-07-31T14:38:39;3.50;;;0.50;;
57752;SDS011;43583;53.132;6.574;2023-07-31T14:41:04;3.65;;;0.70;;
57752;SDS011;43583;53.132;6.574;2023-07-31T14:43:30;2.58;;;0.85;;
57752;SDS011;43583;53.132;6.574;2023-07-31T14:45:55;4.93;;;0.77;;
57752;SDS011;43583;53.132;6.574;2023-07-31T14:48:24;4.10;;;0.57;;
57752;SDS011;43583;53.132;6.574;2023-07-31T14:50:49;4.03;;;1.17;;
57752;SDS011;43583;53.132;6.574;2023-07-31T14:53:15;5.30;;;0.90;;
57752;SDS011;43583;53.132;6.574;2023-07-31T14:55:41;5.32;;;1.25;;
57752;SDS011;43583;53.132;6.574;2023-07-31T14:58:06;4.88;;;1.63;;
57752;SDS011;43583;53.132;6.574;2023-07-31T15:00:32;7.70;;;0.98;;